createdAt,value
2023-04-03T00:01:12.883Z,3.75
2023-04-03T00:03:40.460Z,2.95
2023-04-03T00:06:09.754Z,4.13
2023-04-03T00:08:37.610Z,6.72
2023-04-03T00:11:05.849Z,2.33
2023-04-03T00:13:34.063Z,3.20
2023-04-03T00:16:01.790Z,2.47
2023-04-03T00:18:29.399Z,1.65
2023-04-03T00:20:57.065Z,3.03
2023-04-03T00:23:27.890Z,3.22
2023-04-03T00:25:56.372Z,1.95
2023-04-03T00:28:24.030Z,4.00
2023-04-03T00:30:51.970Z,4.75
2023-04-03T00:33:22.835Z,6.10
2023-04-03T00:35:51.017Z,5.00
2023-04-03T00:38:19.290Z,6.40
2023-04-03T00:40:48.738Z,2.85
2023-04-03T00:43:18.243Z,5.25
2023-04-03T00:45:47.201Z,2.67
2023-04-03T00:48:20.572Z,3.47
2023-04-03T00:50:48.639Z,3.88
2023-04-03T00:53:20.008Z,4.43
2023-04-03T00:55:48.581Z,6.00
2023-04-03T00:58:17.351Z,3.65
2023-04-03T01:00:48.109Z,7.05
2023-04-03T01:03:15.852Z,7.00
2023-04-03T01:05:43.520Z,5.30
2023-04-03T01:08:11.574Z,4.70
2023-04-03T01:10:39.467Z,4.38
2023-04-03T01:13:19.914Z,3.33
2023-04-03T01:15:47.501Z,5.65
2023-04-03T01:18:15.033Z,3.90
2023-04-03T01:20:52.537Z,3.47
2023-04-03T01:23:20.329Z,2.78
2023-04-03T01:25:49.090Z,2.53
2023-04-03T01:28:18.616Z,6.20
2023-04-03T01:30:48.695Z,5.03
2023-04-03T01:33:16.411Z,2.65
2023-04-03T01:35:44.450Z,2.60
2023-04-03T01:38:12.218Z,5.70
2023-04-03T01:40:39.970Z,4.80
2023-04-03T01:43:07.685Z,4.38
2023-04-03T01:45:35.352Z,4.38
2023-04-03T01:48:05.668Z,2.53
2023-04-03T01:50:33.224Z,2.38
2023-04-03T01:53:01.849Z,4.32
2023-04-03T01:55:29.482Z,1.88
2023-04-03T01:57:57.254Z,4.60
2023-04-03T02:00:24.868Z,6.72
2023-04-03T02:02:52.630Z,6.10
2023-04-03T02:05:20.648Z,2.78
2023-04-03T02:07:48.164Z,5.10
2023-04-03T02:10:15.990Z,3.15
2023-04-03T02:12:46.110Z,6.03
2023-04-03T02:17:41.271Z,3.20
2023-04-03T02:20:09.284Z,3.70
2023-04-03T02:22:37.056Z,2.50
2023-04-03T02:25:07.264Z,3.00
2023-04-03T02:27:37.530Z,4.63
2023-04-03T02:30:05.805Z,3.63
2023-04-03T02:32:33.608Z,4.32
2023-04-03T02:35:01.491Z,4.65
2023-04-03T02:37:29.160Z,1.88
2023-04-03T02:39:56.799Z,5.97
2023-04-03T02:42:24.354Z,2.00
2023-04-03T02:44:51.831Z,7.90
2023-04-03T02:47:19.420Z,3.85
2023-04-03T02:49:47.160Z,7.93
2023-04-03T02:52:16.063Z,5.60
2023-04-03T02:54:43.691Z,3.63
2023-04-03T02:57:11.400Z,3.85
2023-04-03T02:59:42.210Z,2.85
2023-04-03T03:02:10.588Z,5.97
2023-04-03T03:04:38.602Z,4.55
2023-04-03T03:07:06.291Z,3.75
2023-04-03T03:09:34.162Z,2.20
2023-04-03T03:12:04.519Z,7.97
2023-04-03T03:14:32.185Z,7.07
2023-04-03T03:16:59.908Z,6.03
2023-04-03T03:19:27.676Z,5.30
2023-04-03T03:21:55.471Z,2.88
2023-04-03T03:24:23.198Z,2.58
2023-04-03T03:26:50.914Z,6.00
2023-04-03T03:29:21.210Z,8.07
2023-04-03T03:31:48.816Z,2.42
2023-04-03T03:34:16.642Z,4.90
2023-04-03T03:36:44.326Z,4.07
2023-04-03T03:39:12.005Z,4.35
2023-04-03T03:41:39.590Z,6.05
2023-04-03T03:44:07.246Z,6.05
2023-04-03T03:46:37.996Z,6.22
2023-04-03T03:49:05.721Z,4.10
2023-04-03T03:51:33.415Z,4.65
2023-04-03T03:54:02.116Z,4.22
2023-04-03T03:56:32.219Z,5.68
2023-04-03T03:59:00.005Z,7.95
2023-04-03T04:01:27.941Z,5.45
2023-04-03T04:03:58.310Z,7.15
2023-04-03T04:06:28.650Z,4.85
2023-04-03T04:08:56.354Z,5.78
2023-04-03T04:11:24.330Z,3.17
2023-04-03T04:13:52.054Z,10.77
2023-04-03T04:16:19.657Z,3.63
2023-04-03T04:18:49.796Z,2.05
2023-04-03T04:23:44.851Z,3.65
2023-04-03T04:26:12.631Z,7.40
2023-04-03T04:28:40.253Z,6.68
2023-04-03T04:31:07.791Z,7.45
2023-04-03T04:33:35.822Z,1.45
2023-04-03T04:36:03.567Z,4.03
2023-04-03T04:38:31.452Z,11.32
2023-04-03T04:40:59.241Z,6.65
2023-04-03T04:43:27.244Z,10.57
2023-04-03T04:46:05.005Z,6.57
2023-04-03T04:48:32.922Z,7.50
2023-04-03T04:51:00.827Z,4.80
2023-04-03T04:53:28.583Z,16.70
2023-04-03T04:55:56.682Z,24.75
2023-04-03T04:58:24.301Z,14.77
2023-04-03T05:00:51.907Z,12.55
2023-04-03T05:03:19.660Z,6.93
2023-04-03T05:05:47.343Z,23.42
2023-04-03T05:08:15.009Z,11.63
2023-04-03T05:10:43.287Z,9.35
2023-04-03T05:13:10.844Z,7.72
2023-04-03T05:15:38.788Z,17.65
2023-04-03T05:18:06.892Z,18.90
2023-04-03T05:20:34.984Z,14.68
2023-04-03T05:23:03.005Z,7.18
2023-04-03T05:25:30.562Z,17.73
2023-04-03T05:27:58.307Z,31.45
2023-04-03T05:30:25.942Z,7.00
2023-04-03T05:32:53.695Z,23.10
2023-04-03T05:35:21.442Z,10.32
2023-04-03T05:37:49.492Z,23.48
2023-04-03T05:40:19.691Z,18.20
2023-04-03T05:42:47.503Z,14.40
2023-04-03T05:45:15.192Z,11.95
2023-04-03T05:47:43.226Z,8.05
2023-04-03T05:50:11.165Z,19.02
2023-04-03T05:52:40.005Z,18.02
2023-04-03T05:55:08.497Z,11.05
2023-04-03T05:57:39.057Z,13.70
2023-04-03T06:00:07.770Z,13.77
2023-04-03T06:02:35.560Z,15.27
2023-04-03T06:05:03.596Z,22.23
2023-04-03T06:07:31.571Z,10.45
2023-04-03T06:09:59.261Z,20.05
2023-04-03T06:12:26.990Z,16.85
2023-04-03T06:14:54.632Z,10.40
2023-04-03T06:17:22.760Z,19.52
2023-04-03T06:19:50.703Z,19.25
2023-04-03T06:22:18.470Z,17.83
2023-04-03T06:24:47.889Z,26.38
2023-04-03T06:27:15.913Z,18.45
2023-04-03T06:29:44.353Z,19.92
2023-04-03T06:32:12.002Z,24.48
2023-04-03T06:34:39.697Z,25.05
2023-04-03T06:37:07.473Z,21.50
2023-04-03T06:39:35.957Z,34.85
2023-04-03T06:42:03.639Z,17.30
2023-04-03T06:44:31.687Z,29.35
2023-04-03T06:46:59.759Z,20.55
2023-04-03T06:49:31.687Z,22.60
2023-04-03T06:52:01.028Z,29.05
2023-04-03T06:54:30.693Z,22.42
2023-04-03T06:57:00.933Z,19.75
2023-04-03T06:59:28.722Z,25.10
2023-04-03T07:01:56.243Z,22.13
2023-04-03T07:04:24.079Z,23.88
2023-04-03T07:06:53.519Z,25.42
2023-04-03T07:09:21.947Z,17.08
2023-04-03T07:11:49.825Z,27.88
2023-04-03T07:14:17.425Z,19.58
2023-04-03T07:16:45.241Z,20.95
2023-04-03T07:19:13.063Z,33.22
2023-04-03T07:21:41.680Z,30.33
2023-04-03T07:24:11.512Z,19.98
2023-04-03T07:26:43.079Z,21.20
2023-04-03T07:29:10.842Z,29.15
2023-04-03T07:31:38.676Z,31.40
2023-04-03T07:34:06.614Z,34.65
2023-04-03T07:36:34.545Z,26.20
2023-04-03T07:39:04.764Z,35.28
2023-04-03T07:41:32.638Z,26.27
2023-04-03T07:44:00.411Z,29.08
2023-04-03T07:46:28.298Z,23.17
2023-04-03T07:48:57.396Z,24.65
2023-04-03T07:51:27.331Z,21.10
2023-04-03T07:53:56.605Z,28.42
2023-04-03T07:56:26.273Z,24.00
2023-04-03T07:58:54.730Z,19.88
2023-04-03T08:01:22.820Z,44.85
2023-04-03T08:03:50.732Z,21.25
2023-04-03T08:06:21.665Z,32.08
2023-04-03T08:08:54.140Z,23.67
2023-04-03T08:11:22.542Z,35.28
2023-04-03T08:13:51.821Z,23.95
2023-04-03T08:16:22.430Z,36.67
2023-04-03T08:21:18.227Z,25.95
2023-04-03T08:23:46.094Z,38.40
2023-04-03T08:26:17.026Z,28.00
2023-04-03T08:28:44.830Z,32.15
2023-04-03T08:31:14.799Z,38.88
2023-04-03T08:36:17.746Z,30.30
2023-04-03T08:38:45.579Z,32.63
2023-04-03T08:41:17.169Z,27.60
2023-04-03T08:44:03.327Z,32.53
2023-04-03T08:46:39.360Z,25.17
2023-04-03T08:49:14.030Z,31.00
2023-04-03T08:51:45.491Z,43.40
2023-04-03T08:54:19.841Z,29.40
2023-04-03T08:56:47.705Z,29.13
2023-04-03T08:59:18.697Z,67.05
2023-04-03T09:01:46.480Z,40.92
2023-04-03T09:04:15.705Z,40.03
2023-04-03T09:06:47.356Z,32.88
2023-04-03T09:09:27.892Z,34.92
2023-04-03T09:12:11.136Z,30.23
2023-04-03T09:14:38.791Z,39.70
2023-04-03T09:17:18.040Z,27.63
2023-04-03T09:20:04.656Z,24.30
2023-04-03T09:22:39.163Z,27.92
2023-04-03T09:25:20.579Z,35.17
2023-04-03T09:27:48.537Z,29.13
2023-04-03T09:30:23.623Z,26.20
2023-04-03T09:32:53.178Z,20.70
2023-04-03T09:35:36.307Z,34.63
2023-04-03T09:38:12.330Z,20.90
2023-04-03T09:40:41.366Z,31.60
2023-04-03T09:43:18.309Z,25.15
2023-04-03T09:45:46.800Z,26.58
2023-04-03T09:48:19.163Z,31.48
2023-04-03T09:50:57.762Z,25.75
2023-04-03T09:53:32.104Z,23.52
2023-04-03T09:56:01.335Z,30.80
2023-04-03T09:58:50.510Z,34.83
2023-04-03T10:01:32.400Z,39.88
2023-04-03T10:04:09.568Z,32.47
2023-04-03T10:06:41.667Z,31.08
2023-04-03T10:09:18.456Z,24.27
2023-04-03T10:12:08.020Z,30.20
2023-04-03T10:14:40.375Z,33.22
2023-04-03T10:17:14.380Z,30.63
2023-04-03T10:20:04.638Z,22.05
2023-04-03T10:22:44.436Z,50.97
2023-04-03T10:25:21.794Z,23.50
2023-04-03T10:28:01.884Z,30.85
2023-04-03T10:30:36.583Z,54.28
2023-04-03T10:33:23.035Z,36.75
2023-04-03T10:36:13.741Z,27.83
2023-04-03T10:38:54.174Z,29.92
2023-04-03T10:41:38.433Z,35.33
2023-04-03T10:44:09.319Z,30.58
2023-04-03T10:46:44.141Z,26.92
2023-04-03T10:49:33.700Z,27.05
2023-04-03T10:52:14.221Z,21.52
2023-04-03T10:54:45.203Z,38.80
2023-04-03T10:57:14.431Z,40.20
2023-04-03T10:59:53.162Z,66.03
2023-04-03T11:02:40.067Z,28.08
2023-04-03T11:05:20.458Z,47.72
2023-04-03T11:07:49.819Z,41.63
2023-04-03T11:10:26.163Z,39.53
2023-04-03T11:13:02.299Z,36.40
2023-04-03T11:15:31.449Z,22.23
2023-04-03T11:18:12.074Z,27.85
2023-04-03T11:20:41.239Z,34.92
2023-04-03T11:23:15.798Z,36.08
2023-04-03T11:25:45.922Z,38.10
2023-04-03T11:28:17.027Z,27.05
2023-04-03T11:31:03.839Z,75.90
2023-04-03T11:33:35.251Z,28.73
2023-04-03T11:36:22.785Z,36.72
2023-04-03T11:38:55.915Z,30.70
2023-04-03T11:41:31.745Z,25.98
2023-04-03T11:44:05.211Z,39.40
2023-04-03T11:46:53.232Z,51.00
2023-04-03T11:49:40.696Z,45.35
2023-04-03T11:52:13.222Z,38.88
2023-04-03T11:54:44.859Z,38.80
2023-04-03T11:57:46.186Z,46.15
2023-04-03T12:00:32.836Z,33.30
2023-04-03T12:03:00.806Z,42.70
2023-04-03T12:05:32.358Z,31.30
2023-04-03T12:08:19.169Z,42.20
2023-04-03T12:11:07.477Z,30.80
2023-04-03T12:13:38.005Z,28.15
2023-04-03T12:16:06.464Z,37.13
2023-04-03T12:18:56.551Z,15.05
2023-04-03T12:21:36.383Z,31.23
2023-04-03T12:24:24.323Z,36.95
2023-04-03T12:27:10.746Z,24.45
2023-04-03T12:29:48.424Z,28.45
2023-04-03T12:32:22.201Z,29.48
2023-04-03T12:35:08.838Z,37.72
2023-04-03T12:37:55.325Z,36.20
2023-04-03T12:40:23.109Z,27.63
2023-04-03T12:43:11.336Z,32.75
2023-04-03T12:46:05.502Z,20.65
2023-04-03T12:48:35.492Z,36.22
2023-04-03T12:51:04.538Z,29.50
2023-04-03T12:53:37.048Z,38.28
2023-04-03T12:56:22.552Z,26.67
2023-04-03T12:58:51.491Z,28.25
2023-04-03T13:01:20.713Z,32.17
2023-04-03T13:03:51.953Z,33.80
2023-04-03T13:06:28.153Z,15.65
2023-04-03T13:08:58.220Z,21.63
2023-04-03T13:14:00.706Z,31.00
2023-04-03T13:16:28.480Z,32.35
2023-04-03T13:18:56.486Z,22.73
2023-04-03T13:21:27.022Z,12.55
2023-04-03T13:24:07.046Z,20.10
2023-04-03T13:26:42.358Z,21.33
2023-04-03T13:29:29.941Z,25.17
2023-04-03T13:31:59.049Z,31.88
2023-04-03T13:34:28.859Z,29.02
2023-04-03T13:36:58.325Z,29.42
2023-04-03T13:39:35.608Z,28.50
2023-04-03T13:42:24.028Z,30.77
2023-04-03T13:44:51.777Z,38.92
2023-04-03T13:47:23.680Z,35.15
2023-04-03T13:50:21.059Z,29.80
2023-04-03T13:52:57.008Z,21.98
2023-04-03T13:55:30.279Z,37.08
2023-04-03T13:58:05.529Z,27.95
2023-04-03T14:00:33.197Z,24.92
2023-04-03T14:03:01.628Z,25.23
2023-04-03T14:05:29.652Z,33.03
2023-04-03T14:07:58.039Z,13.88
2023-04-03T14:10:25.790Z,23.00
2023-04-03T14:12:53.898Z,13.95
2023-04-03T14:15:26.469Z,22.20
2023-04-03T14:17:54.464Z,14.57
2023-04-03T14:20:23.647Z,17.50
2023-04-03T14:22:52.384Z,15.50
2023-04-03T14:25:20.703Z,22.13
2023-04-03T14:27:50.011Z,20.02
2023-04-03T14:30:18.286Z,12.15
2023-04-03T14:32:46.148Z,37.03
2023-04-03T14:35:13.937Z,26.58
2023-04-03T14:37:41.706Z,34.67
2023-04-03T14:40:09.840Z,39.22
2023-04-03T14:42:38.677Z,10.70
2023-04-03T14:45:07.982Z,20.17
2023-04-03T14:47:38.507Z,11.00
2023-04-03T14:50:09.349Z,15.38
2023-04-03T14:52:38.726Z,9.23
2023-04-03T14:55:09.796Z,12.35
2023-04-03T14:57:39.588Z,24.55
2023-04-03T15:00:11.773Z,24.48
2023-04-03T15:02:41.221Z,10.40
2023-04-03T15:05:10.164Z,16.88
2023-04-03T15:07:42.634Z,10.85
2023-04-03T15:10:21.448Z,11.93
2023-04-03T15:12:49.991Z,11.85
2023-04-03T15:15:18.644Z,21.77
2023-04-03T15:17:46.677Z,11.27
2023-04-03T15:20:16.351Z,11.02
2023-04-03T15:22:44.096Z,26.05
2023-04-03T15:25:12.193Z,32.33
2023-04-03T15:27:41.971Z,20.45
2023-04-03T15:30:10.572Z,17.38
2023-04-03T15:32:38.264Z,20.77
2023-04-03T15:35:06.339Z,11.85
2023-04-03T15:37:34.123Z,16.70
2023-04-03T15:40:01.950Z,16.13
2023-04-03T15:42:30.120Z,20.13
2023-04-03T15:44:58.015Z,15.90
2023-04-03T15:47:26.411Z,13.90
2023-04-03T15:49:55.071Z,16.83
2023-04-03T15:52:23.212Z,20.80
2023-04-03T15:54:51.262Z,17.33
2023-04-03T15:57:19.186Z,28.30
2023-04-03T15:59:46.959Z,15.65
2023-04-03T16:02:14.890Z,20.27
2023-04-03T16:04:42.991Z,15.65
2023-04-03T16:07:10.818Z,7.38
2023-04-03T16:09:38.613Z,19.60
2023-04-03T16:12:06.380Z,7.57
2023-04-03T16:14:34.418Z,8.40
2023-04-03T16:17:02.237Z,10.65
2023-04-03T16:19:31.039Z,11.70
2023-04-03T16:21:58.901Z,12.43
2023-04-03T16:24:26.670Z,6.55
2023-04-03T16:26:54.642Z,11.27
2023-04-03T16:29:22.261Z,7.63
2023-04-03T16:31:49.880Z,5.50
2023-04-03T16:34:17.901Z,10.80
2023-04-03T16:36:45.498Z,8.05
2023-04-03T16:39:13.420Z,4.72
2023-04-03T16:41:41.235Z,39.28
2023-04-03T16:44:08.942Z,14.95
2023-04-03T16:46:36.719Z,22.17
2023-04-03T16:49:04.499Z,12.00
2023-04-03T16:51:33.100Z,13.80
2023-04-03T16:54:01.406Z,9.13
2023-04-03T16:56:29.650Z,24.25
2023-04-03T16:58:57.427Z,5.95
2023-04-03T17:01:25.611Z,9.32
2023-04-03T17:03:53.433Z,9.05
2023-04-03T17:06:22.651Z,7.38
2023-04-03T17:08:50.706Z,5.20
2023-04-03T17:11:18.966Z,7.50
2023-04-03T17:13:46.756Z,8.88
2023-04-03T17:16:15.934Z,24.27
2023-04-03T17:18:44.447Z,7.53
2023-04-03T17:21:12.649Z,7.13
2023-04-03T17:23:40.972Z,8.57
2023-04-03T17:26:08.894Z,6.97
2023-04-03T17:28:37.067Z,3.72
2023-04-03T17:31:04.813Z,5.55
2023-04-03T17:33:32.719Z,9.73
2023-04-03T17:36:04.578Z,5.70
2023-04-03T17:38:33.584Z,7.07
2023-04-03T17:41:02.124Z,11.25
2023-04-03T17:43:29.948Z,5.88
2023-04-03T17:46:05.110Z,8.88
2023-04-03T17:48:33.503Z,8.95
2023-04-03T17:51:04.672Z,4.65
2023-04-03T17:53:32.378Z,4.03
2023-04-03T17:56:01.037Z,6.47
2023-04-03T17:58:28.840Z,8.07
2023-04-03T18:00:57.188Z,10.07
2023-04-03T18:03:24.735Z,6.13
2023-04-03T18:05:55.397Z,6.00
2023-04-03T18:08:23.679Z,3.47
2023-04-03T18:10:51.287Z,6.63
2023-04-03T18:13:19.145Z,4.25
2023-04-03T18:15:47.121Z,5.55
2023-04-03T18:18:14.922Z,3.33
2023-04-03T18:20:42.662Z,5.53
2023-04-03T18:23:10.461Z,3.28
2023-04-03T18:25:38.483Z,7.03
2023-04-03T18:28:06.763Z,5.30
2023-04-03T18:30:36.177Z,9.60
2023-04-03T18:33:03.915Z,7.18
2023-04-03T18:35:31.662Z,6.80
2023-04-03T18:37:59.396Z,8.27
2023-04-03T18:40:27.155Z,4.20
2023-04-03T18:42:54.813Z,3.70
2023-04-03T18:45:23.448Z,10.77
2023-04-03T18:47:51.281Z,7.78
2023-04-03T18:50:18.975Z,4.07
2023-04-03T18:52:50.733Z,5.90
2023-04-03T18:55:20.376Z,3.38
2023-04-03T18:57:48.647Z,5.45
2023-04-03T19:00:17.098Z,6.70
2023-04-03T19:02:45.716Z,11.88
2023-04-03T19:05:15.198Z,6.10
2023-04-03T19:07:44.740Z,5.75
2023-04-03T19:10:20.200Z,8.15
2023-04-03T19:12:48.718Z,9.13
2023-04-03T19:15:17.150Z,9.00
2023-04-03T19:17:44.841Z,9.75
2023-04-03T19:20:13.909Z,9.15
2023-04-03T19:22:41.654Z,5.70
2023-04-03T19:25:13.133Z,6.63
2023-04-03T19:27:41.620Z,8.00
2023-04-03T19:30:10.261Z,7.63
2023-04-03T19:32:38.001Z,5.95
2023-04-03T19:35:06.007Z,7.68
2023-04-03T19:37:33.749Z,6.68
2023-04-03T19:40:01.578Z,8.60
2023-04-03T19:42:30.138Z,5.35
2023-04-03T19:44:58.022Z,6.63
2023-04-03T19:47:26.280Z,5.22
2023-04-03T19:49:53.987Z,7.47
2023-04-03T19:52:22.023Z,5.40
2023-04-03T19:54:51.696Z,11.38
2023-04-03T19:57:20.429Z,10.98
2023-04-03T19:59:48.246Z,6.10
2023-04-03T20:02:16.914Z,2.75
2023-04-03T20:04:44.561Z,7.30
2023-04-03T20:07:13.472Z,3.97
2023-04-03T20:09:41.737Z,5.05
2023-04-03T20:12:12.528Z,4.97
2023-04-03T20:14:41.076Z,6.53
2023-04-03T20:17:08.870Z,3.47
2023-04-03T20:19:37.080Z,7.22
2023-04-03T20:22:04.696Z,6.78
2023-04-03T20:24:32.428Z,3.17
2023-04-03T20:27:00.268Z,5.15
2023-04-03T20:29:27.989Z,4.65
2023-04-03T20:31:56.185Z,2.58
2023-04-03T20:34:27.183Z,3.28
2023-04-03T20:36:55.105Z,5.03
2023-04-03T20:39:24.829Z,4.78
2023-04-03T20:41:52.429Z,4.47
2023-04-03T20:44:21.951Z,6.25
2023-04-03T20:46:53.424Z,4.72
2023-04-03T20:49:21.804Z,3.67
2023-04-03T20:51:51.296Z,5.10
2023-04-03T20:54:19.758Z,2.80
2023-04-03T20:56:49.826Z,4.32
2023-04-03T20:59:18.585Z,8.48
2023-04-03T21:01:47.710Z,3.25
2023-04-03T21:04:25.524Z,7.45
2023-04-03T21:07:11.815Z,2.22
2023-04-03T21:09:58.091Z,8.02
2023-04-03T21:12:44.333Z,4.63
2023-04-03T21:15:31.683Z,6.30
2023-04-03T21:18:08.649Z,5.93
2023-04-03T21:20:37.502Z,3.58
2023-04-03T21:23:05.500Z,6.72
2023-04-03T21:25:33.183Z,4.45
2023-04-03T21:28:01.296Z,5.53
2023-04-03T21:30:28.849Z,5.50
2023-04-03T21:32:56.608Z,5.47
2023-04-03T21:35:24.376Z,6.45
2023-04-03T21:37:55.365Z,5.10
2023-04-03T21:40:22.947Z,6.57
2023-04-03T21:42:54.895Z,6.00
2023-04-03T21:45:22.653Z,4.60
2023-04-03T21:47:51.417Z,4.07
2023-04-03T21:50:19.408Z,3.80
2023-04-03T21:52:48.002Z,4.47
2023-04-03T21:55:15.565Z,2.80
2023-04-03T21:57:43.732Z,4.10
2023-04-03T22:00:11.590Z,3.13
2023-04-03T22:02:42.411Z,3.00
2023-04-03T22:05:10.168Z,4.65
2023-04-03T22:07:37.841Z,6.05
2023-04-03T22:10:06.423Z,1.45
2023-04-03T22:12:34.280Z,2.55
2023-04-03T22:15:03.169Z,4.35
2023-04-03T22:17:31.522Z,4.07
2023-04-03T22:19:59.138Z,5.65
2023-04-03T22:22:27.246Z,6.45
2023-04-03T22:24:55.677Z,8.88
2023-04-03T22:27:26.623Z,3.38
2023-04-03T22:29:54.262Z,2.33
2023-04-03T22:32:21.854Z,8.30
2023-04-03T22:34:49.619Z,3.83
2023-04-03T22:37:17.195Z,7.65
2023-04-03T22:39:44.886Z,3.65
2023-04-03T22:42:12.741Z,4.18
2023-04-03T22:44:40.892Z,4.45
2023-04-03T22:47:08.706Z,14.82
2023-04-03T22:49:37.023Z,4.82
2023-04-03T22:52:05.896Z,4.45
2023-04-03T22:54:33.650Z,3.90
2023-04-03T22:57:01.200Z,5.68
2023-04-03T22:59:28.801Z,3.55
2023-04-03T23:01:56.780Z,3.45
2023-04-03T23:04:24.685Z,3.33
2023-04-03T23:06:52.507Z,5.00
2023-04-03T23:09:20.209Z,3.30
2023-04-03T23:11:48.112Z,4.07
2023-04-03T23:14:15.808Z,5.35
2023-04-03T23:16:43.556Z,3.38
2023-04-03T23:19:11.364Z,4.47
2023-04-03T23:21:39.433Z,3.08
2023-04-03T23:24:07.235Z,13.05
2023-04-03T23:26:34.948Z,3.85
2023-04-03T23:29:02.951Z,5.28
2023-04-03T23:31:30.630Z,4.82
2023-04-03T23:33:58.380Z,5.20
2023-04-03T23:36:26.126Z,3.30
2023-04-03T23:38:56.874Z,4.45
2023-04-03T23:41:25.021Z,3.92
2023-04-03T23:43:52.781Z,8.07
2023-04-03T23:46:20.791Z,2.65
2023-04-03T23:48:48.462Z,2.75
2023-04-03T23:51:16.283Z,5.68
2023-04-03T23:53:45.025Z,3.00
2023-04-03T23:56:13.378Z,4.65
2023-04-03T23:58:40.967Z,3.17
